Wetterdaten: Februar 2017
Datum Temp Feuchte Luftdruck Regen Wind Richtung Sonnenschein UV Solar Windben
01.02.2017 0,5 C 92 % 1015,9 hPa 0,0 l/m 16,1 km/h S-SO 1,75 h 0,9 UV-I 116 W/m 26,9 km/h
02.02.2017 3,9 C 95 % 1008,6 hPa 1,4 l/m 3,0 km/h S-SO 2,42 h 0,9 UV-I 131 W/m 6,4 km/h
03.02.2017 4,6 C 98 % 1004,3 hPa 2,6 l/m 0,0 km/h S 0,58 h 0,5 UV-I 45 W/m 0,0 km/h
04.02.2017 5,3 C 88 % 1000,7 hPa 0,6 l/m 2,2 km/h S-SO 4,42 h 0,8 UV-I 150 W/m 10,9 km/h
05.02.2017 2,5 C 92 % 1004,7 hPa 3,8 l/m 0,1 km/h S-SW 0,33 h 0,7 UV-I 93 W/m 2,0 km/h
06.02.2017 1,1 C 96 % 1018,7 hPa 0,0 l/m 0,6 km/h N 0,00 h 0,0 UV-I 40 W/m 4,0 km/h
07.02.2017 -0,9 C 94 % 1019,6 hPa 0,4 l/m 2,6 km/h O-SO 0,00 h 0,5 UV-I 34 W/m 12,9 km/h
08.02.2017 -2,0 C 90 % 1026,4 hPa 0,0 l/m 4,0 km/h O-SO 0,00 h 0,5 UV-I 67 W/m 11,3 km/h
09.02.2017 -2,7 C 85 % 1027,8 hPa 0,0 l/m 1,7 km/h O-SO 1,58 h 0,7 UV-I 108 W/m 6,4 km/h
10.02.2017 -2,3 C 89 % 1023,3 hPa 0,0 l/m 1,2 km/h O-SO 0,00 h 0,5 UV-I 41 W/m 7,3 km/h
11.02.2017 -0,1 C 91 % 1022,4 hPa 0,0 l/m 3,2 km/h O-SO 1,00 h 0,6 UV-I 103 W/m 11,7 km/h
12.02.2017 -0,7 C 92 % 1029,7 hPa 0,0 l/m 2,1 km/h O-SO 0,00 h 0,6 UV-I 70 W/m 10,1 km/h
13.02.2017 2,2 C 71 % 1031,3 hPa 0,0 l/m 8,1 km/h O-SO 6,92 h 0,9 UV-I 219 W/m 23,3 km/h
14.02.2017 2,3 C 68 % 1031,3 hPa 0,0 l/m 4,8 km/h SO 7,08 h 1,0 UV-I 232 W/m 17,3 km/h
15.02.2017 3,3 C 76 % 1032,5 hPa 0,0 l/m 0,3 km/h S 7,17 h 1,0 UV-I 228 W/m 2,0 km/h
16.02.2017 7,1 C 85 % 1027,6 hPa 0,0 l/m 0,1 km/h SW 0,92 h 0,7 UV-I 104 W/m 1,6 km/h
17.02.2017 5,0 C 96 % 1023,6 hPa 7,2 l/m 2,6 km/h W 0,00 h 0,0 UV-I 24 W/m 10,9 km/h
18.02.2017 2,8 C 89 % 1025,7 hPa 0,0 l/m 0,1 km/h NW 0,75 h 1,0 UV-I 117 W/m 2,0 km/h
19.02.2017 4,2 C 94 % 1020,3 hPa 5,8 l/m 1,1 km/h S-SW 0,42 h 0,7 UV-I 76 W/m 9,2 km/h
20.02.2017 7,5 C 97 % 1013,3 hPa 8,2 l/m 10,2 km/h S-SW 0,00 h 0,7 UV-I 53 W/m 23,3 km/h
21.02.2017 6,0 C 89 % 1012,1 hPa 1,8 l/m 6,1 km/h NW 2,17 h 0,9 UV-I 144 W/m 14,9 km/h
22.02.2017 7,6 C 96 % 1003,5 hPa 16,6 l/m 13,3 km/h S-SW 0,00 h 0,0 UV-I 29 W/m 32,2 km/h
23.02.2017 6,5 C 92 % 992,0 hPa 19,4 l/m 17,5 km/h S-SW 0,08 h 0,5 UV-I 46 W/m 38,7 km/h
24.02.2017 1,6 C 88 % 1012,7 hPa 4,0 l/m 5,2 km/h NW 1,92 h 0,9 UV-I 149 W/m 13,3 km/h
25.02.2017 4,6 C 75 % 1017,1 hPa 0,2 l/m 3,2 km/h S-SW 2,17 h 1,1 UV-I 156 W/m 14,5 km/h
26.02.2017 8,3 C 78 % 1010,1 hPa 0,0 l/m 7,3 km/h S-SW 0,00 h 0,8 UV-I 102 W/m 16,5 km/h
27.02.2017 8,5 C 82 % 996,9 hPa 2,2 l/m 5,6 km/h S 0,83 h 1,0 UV-I 137 W/m 11,3 km/h
28.02.2017 3,7 C 83 % 991,8 hPa 3,8 l/m 11,2 km/h S 0,92 h 0,8 UV-I 120 W/m 23,3 km/h
Min-Datum 09.02.17 15.02.17 23.02.17 15 Tage 01.02.17 - - - - 01.02.17
Min-Zeit 04:45 14:40 19:00 - 00:00 - - - - 00:00
Minimum -4,4 C 42 % 987,6 hPa - 0,0 km/h - - - - 0,0 km/h
Max-Datum 15.02.17 03.02.17 15.02.17 23.02.17 23.02.17 - 15.02.17 25.02.17 27.02.17 23.02.17
Max-Zeit 14:50 19:35 10:05 18:05 16:15 - 16:10 11:35 12:40 16:15
Maximum 13,7 C 100 % 1033,9 hPa 19,4 l/m 47,7 km/h
S-SW
- 7,08 h 1,9 UV-I 663 W/m 93,3 km/h
S-SW
Durchschnitt 3,2 C 88 % 1015,9 hPa #78,0 l/m 4,8 km/h S #43:25 h 0,8 UV-I 105 W/m 13,0 km/h

Durchschnitt Minimum Temp.0,6 C
Durchschnitt Maximum Temp.6,0 C